sensor_id;sensor_type;location;lat;lon;timestamp;temperature;humidity
4811;DHT22;2419;51.276;6.472;2023-02-28T00:01:11;0.10;99.90
4811;DHT22;2419;51.276;6.472;2023-02-28T00:03:39;0.20;99.90
4811;DHT22;2419;51.276;6.472;2023-02-28T00:06:09;0.20;99.90
4811;DHT22;2419;51.276;6.472;2023-02-28T00:08:38;0.20;99.90
4811;DHT22;2419;51.276;6.472;2023-02-28T00:11:07;0.20;99.90
4811;DHT22;2419;51.276;6.472;2023-02-28T00:13:37;0.10;99.90
4811;DHT22;2419;51.276;6.472;2023-02-28T00:16:07;-0.20;99.90
4811;DHT22;2419;51.276;6.472;2023-02-28T00:18:36;-0.30;99.90
4811;DHT22;2419;51.276;6.472;2023-02-28T00:21:04;-0.50;99.90
4811;DHT22;2419;51.276;6.472;2023-02-28T00:23:35;-0.70;99.90
4811;DHT22;2419;51.276;6.472;2023-02-28T00:26:03;-0.70;99.90
4811;DHT22;2419;51.276;6.472;2023-02-28T00:28:31;-0.70;99.90
4811;DHT22;2419;51.276;6.472;2023-02-28T00:31:00;-0.70;99.90
4811;DHT22;2419;51.276;6.472;2023-02-28T00:33:28;-0.70;99.90
4811;DHT22;2419;51.276;6.472;2023-02-28T00:36:07;-0.70;99.90
4811;DHT22;2419;51.276;6.472;2023-02-28T00:38:37;-0.40;99.90
4811;DHT22;2419;51.276;6.472;2023-02-28T00:41:07;-0.40;99.90
4811;DHT22;2419;51.276;6.472;2023-02-28T00:43:37;-0.30;99.90
4811;DHT22;2419;51.276;6.472;2023-02-28T00:46:05;-0.20;99.90
4811;DHT22;2419;51.276;6.472;2023-02-28T00:48:34;-0.10;99.90
4811;DHT22;2419;51.276;6.472;2023-02-28T00:51:03;0.00;99.90
4811;DHT22;2419;51.276;6.472;2023-02-28T00:53:33;0.20;99.90
4811;DHT22;2419;51.276;6.472;2023-02-28T00:56:03;0.20;99.90
4811;DHT22;2419;51.276;6.472;2023-02-28T00:58:31;0.10;99.90
4811;DHT22;2419;51.276;6.472;2023-02-28T01:00:59;-0.10;99.90
4811;DHT22;2419;51.276;6.472;2023-02-28T01:03:27;-0.10;99.90
4811;DHT22;2419;51.276;6.472;2023-02-28T01:05:55;-0.20;99.90
4811;DHT22;2419;51.276;6.472;2023-02-28T01:08:23;-0.20;99.90
4811;DHT22;2419;51.276;6.472;2023-02-28T01:10:53;-0.20;99.90
4811;DHT22;2419;51.276;6.472;2023-02-28T01:13:23;-0.20;99.90
4811;DHT22;2419;51.276;6.472;2023-02-28T01:15:53;-0.10;99.90
4811;DHT22;2419;51.276;6.472;2023-02-28T01:18:22;0.00;99.90
4811;DHT22;2419;51.276;6.472;2023-02-28T01:20:51;0.00;99.90
4811;DHT22;2419;51.276;6.472;2023-02-28T01:23:19;0.10;99.90
4811;DHT22;2419;51.276;6.472;2023-02-28T01:25:48;0.20;99.90
4811;DHT22;2419;51.276;6.472;2023-02-28T01:28:16;0.30;99.90
4811;DHT22;2419;51.276;6.472;2023-02-28T01:30:49;0.30;99.90
4811;DHT22;2419;51.276;6.472;2023-02-28T01:33:17;0.30;99.90
4811;DHT22;2419;51.276;6.472;2023-02-28T01:35:45;0.20;99.90
4811;DHT22;2419;51.276;6.472;2023-02-28T01:38:13;0.20;99.90
4811;DHT22;2419;51.276;6.472;2023-02-28T01:40:49;0.20;99.90
4811;DHT22;2419;51.276;6.472;2023-02-28T01:43:21;0.20;99.90
4811;DHT22;2419;51.276;6.472;2023-02-28T01:45:51;0.20;99.90
4811;DHT22;2419;51.276;6.472;2023-02-28T01:48:22;0.10;99.90
4811;DHT22;2419;51.276;6.472;2023-02-28T01:50:54;0.00;99.90
4811;DHT22;2419;51.276;6.472;2023-02-28T01:53:26;0.00;99.90
4811;DHT22;2419;51.276;6.472;2023-02-28T01:55:57;0.10;99.90
4811;DHT22;2419;51.276;6.472;2023-02-28T01:58:26;0.10;99.90
4811;DHT22;2419;51.276;6.472;2023-02-28T02:00:56;-0.10;99.90
4811;DHT22;2419;51.276;6.472;2023-02-28T02:03:25;-0.30;99.90
4811;DHT22;2419;51.276;6.472;2023-02-28T02:05:53;-0.40;99.90
4811;DHT22;2419;51.276;6.472;2023-02-28T02:08:23;-0.40;99.90
4811;DHT22;2419;51.276;6.472;2023-02-28T02:10:54;-0.50;99.90
4811;DHT22;2419;51.276;6.472;2023-02-28T02:13:34;-0.50;99.90
4811;DHT22;2419;51.276;6.472;2023-02-28T02:16:16;-0.50;99.90
4811;DHT22;2419;51.276;6.472;2023-02-28T02:18:52;-0.40;99.90
4811;DHT22;2419;51.276;6.472;2023-02-28T02:27:22;-0.20;99.90
4811;DHT22;2419;51.276;6.472;2023-02-28T02:30:19;-0.30;99.90
4811;DHT22;2419;51.276;6.472;2023-02-28T02:33:13;-0.40;99.90
4811;DHT22;2419;51.276;6.472;2023-02-28T02:35:50;-0.50;99.90
4811;DHT22;2419;51.276;6.472;2023-02-28T02:38:31;-0.50;99.90
4811;DHT22;2419;51.276;6.472;2023-02-28T02:41:05;-0.70;99.90
4811;DHT22;2419;51.276;6.472;2023-02-28T02:43:40;-0.60;99.90
4811;DHT22;2419;51.276;6.472;2023-02-28T02:46:13;-0.70;99.90
4811;DHT22;2419;51.276;6.472;2023-02-28T02:48:45;-0.60;99.90
4811;DHT22;2419;51.276;6.472;2023-02-28T02:51:17;-0.60;99.90
4811;DHT22;2419;51.276;6.472;2023-02-28T02:53:48;-0.50;99.90
4811;DHT22;2419;51.276;6.472;2023-02-28T02:56:21;-0.50;99.90
4811;DHT22;2419;51.276;6.472;2023-02-28T02:58:52;-0.50;99.90
4811;DHT22;2419;51.276;6.472;2023-02-28T03:01:24;-0.60;99.90
4811;DHT22;2419;51.276;6.472;2023-02-28T03:03:57;-0.70;99.90
4811;DHT22;2419;51.276;6.472;2023-02-28T03:06:27;-0.80;99.90
4811;DHT22;2419;51.276;6.472;2023-02-28T03:08:56;-1.00;99.90
4811;DHT22;2419;51.276;6.472;2023-02-28T03:11:24;-1.20;99.90
4811;DHT22;2419;51.276;6.472;2023-02-28T03:14:10;-1.30;99.90
4811;DHT22;2419;51.276;6.472;2023-02-28T03:17:03;-1.40;99.90
4811;DHT22;2419;51.276;6.472;2023-02-28T03:19:47;-1.50;99.90
4811;DHT22;2419;51.276;6.472;2023-02-28T03:22:38;-1.50;99.90
4811;DHT22;2419;51.276;6.472;2023-02-28T03:25:11;-1.60;99.90
4811;DHT22;2419;51.276;6.472;2023-02-28T03:27:45;-1.60;99.90
4811;DHT22;2419;51.276;6.472;2023-02-28T03:30:22;-1.60;99.90
4811;DHT22;2419;51.276;6.472;2023-02-28T03:32:55;-1.60;99.90
4811;DHT22;2419;51.276;6.472;2023-02-28T03:35:26;-1.60;99.90
4811;DHT22;2419;51.276;6.472;2023-02-28T03:38:00;-1.50;99.90
4811;DHT22;2419;51.276;6.472;2023-02-28T03:40:33;-1.50;99.90
4811;DHT22;2419;51.276;6.472;2023-02-28T03:43:09;-1.50;99.90
4811;DHT22;2419;51.276;6.472;2023-02-28T03:45:39;-1.40;99.90
4811;DHT22;2419;51.276;6.472;2023-02-28T03:48:10;-1.40;99.90
4811;DHT22;2419;51.276;6.472;2023-02-28T03:50:40;-1.30;99.90
4811;DHT22;2419;51.276;6.472;2023-02-28T03:53:13;-1.20;99.90
4811;DHT22;2419;51.276;6.472;2023-02-28T03:55:44;-1.20;99.90
4811;DHT22;2419;51.276;6.472;2023-02-28T03:58:15;-1.10;99.90
4811;DHT22;2419;51.276;6.472;2023-02-28T04:00:51;-1.10;99.90
4811;DHT22;2419;51.276;6.472;2023-02-28T04:03:20;-1.10;99.90
4811;DHT22;2419;51.276;6.472;2023-02-28T04:05:52;-1.10;99.90
4811;DHT22;2419;51.276;6.472;2023-02-28T04:08:22;-1.00;99.90
4811;DHT22;2419;51.276;6.472;2023-02-28T04:10:53;-1.00;99.90
4811;DHT22;2419;51.276;6.472;2023-02-28T04:13:24;-1.00;99.90
4811;DHT22;2419;51.276;6.472;2023-02-28T04:15:52;-1.10;99.90
4811;DHT22;2419;51.276;6.472;2023-02-28T04:18:20;-1.10;99.90
4811;DHT22;2419;51.276;6.472;2023-02-28T04:20:48;-1.10;99.90
4811;DHT22;2419;51.276;6.472;2023-02-28T04:23:16;-1.10;99.90
4811;DHT22;2419;51.276;6.472;2023-02-28T04:25:46;-1.10;99.90
4811;DHT22;2419;51.276;6.472;2023-02-28T04:28:14;-1.00;99.90
4811;DHT22;2419;51.276;6.472;2023-02-28T04:30:42;-1.00;99.90
4811;DHT22;2419;51.276;6.472;2023-02-28T04:33:10;-0.90;99.90
4811;DHT22;2419;51.276;6.472;2023-02-28T04:35:38;-0.80;99.90
4811;DHT22;2419;51.276;6.472;2023-02-28T04:38:07;-0.80;99.90
4811;DHT22;2419;51.276;6.472;2023-02-28T04:40:35;-0.80;99.90
4811;DHT22;2419;51.276;6.472;2023-02-28T04:43:05;-0.70;99.90
4811;DHT22;2419;51.276;6.472;2023-02-28T04:45:33;-0.70;99.90
4811;DHT22;2419;51.276;6.472;2023-02-28T04:48:02;-0.70;99.90
4811;DHT22;2419;51.276;6.472;2023-02-28T04:50:30;-0.70;99.90
4811;DHT22;2419;51.276;6.472;2023-02-28T04:52:59;-0.70;99.90
4811;DHT22;2419;51.276;6.472;2023-02-28T04:55:27;-0.80;99.90
4811;DHT22;2419;51.276;6.472;2023-02-28T04:57:55;-0.80;99.90
4811;DHT22;2419;51.276;6.472;2023-02-28T05:00:24;-0.70;99.90
4811;DHT22;2419;51.276;6.472;2023-02-28T05:02:52;-0.80;99.90
4811;DHT22;2419;51.276;6.472;2023-02-28T05:05:21;-0.80;99.90
4811;DHT22;2419;51.276;6.472;2023-02-28T05:07:49;-0.80;99.90
4811;DHT22;2419;51.276;6.472;2023-02-28T05:10:17;-0.90;99.90
4811;DHT22;2419;51.276;6.472;2023-02-28T05:12:46;-1.00;99.90
4811;DHT22;2419;51.276;6.472;2023-02-28T05:15:15;-0.90;99.90
4811;DHT22;2419;51.276;6.472;2023-02-28T05:17:46;-1.00;99.90
4811;DHT22;2419;51.276;6.472;2023-02-28T05:20:14;-1.00;99.90
4811;DHT22;2419;51.276;6.472;2023-02-28T05:22:44;-1.00;99.90
4811;DHT22;2419;51.276;6.472;2023-02-28T05:25:15;-1.00;99.90
4811;DHT22;2419;51.276;6.472;2023-02-28T05:27:44;-1.00;99.90
4811;DHT22;2419;51.276;6.472;2023-02-28T05:30:13;-1.00;99.90
4811;DHT22;2419;51.276;6.472;2023-02-28T05:32:42;-1.00;99.90
4811;DHT22;2419;51.276;6.472;2023-02-28T05:35:12;-1.00;99.90
4811;DHT22;2419;51.276;6.472;2023-02-28T05:37:40;-1.00;99.90
4811;DHT22;2419;51.276;6.472;2023-02-28T05:40:09;-1.00;99.90
4811;DHT22;2419;51.276;6.472;2023-02-28T05:42:38;-1.00;99.90
4811;DHT22;2419;51.276;6.472;2023-02-28T05:45:07;-1.10;99.90
4811;DHT22;2419;51.276;6.472;2023-02-28T05:47:36;-1.10;99.90
4811;DHT22;2419;51.276;6.472;2023-02-28T05:50:05;-1.10;99.90
4811;DHT22;2419;51.276;6.472;2023-02-28T05:52:35;-1.10;99.90
4811;DHT22;2419;51.276;6.472;2023-02-28T05:55:04;-1.20;99.90
4811;DHT22;2419;51.276;6.472;2023-02-28T05:57:33;-1.30;99.90
4811;DHT22;2419;51.276;6.472;2023-02-28T06:00:02;-1.40;99.90
4811;DHT22;2419;51.276;6.472;2023-02-28T06:02:39;-1.40;99.90
4811;DHT22;2419;51.276;6.472;2023-02-28T06:05:13;-1.40;99.90
4811;DHT22;2419;51.276;6.472;2023-02-28T06:07:43;-1.40;99.90
4811;DHT22;2419;51.276;6.472;2023-02-28T06:10:12;-1.30;99.90
4811;DHT22;2419;51.276;6.472;2023-02-28T06:12:41;-1.30;99.90
4811;DHT22;2419;51.276;6.472;2023-02-28T06:15:12;-1.30;99.90
4811;DHT22;2419;51.276;6.472;2023-02-28T06:17:40;-1.30;99.90
4811;DHT22;2419;51.276;6.472;2023-02-28T06:20:11;-1.20;99.90
4811;DHT22;2419;51.276;6.472;2023-02-28T06:22:40;-1.20;99.90
4811;DHT22;2419;51.276;6.472;2023-02-28T06:25:10;-1.20;99.90
4811;DHT22;2419;51.276;6.472;2023-02-28T06:27:42;-1.10;99.90
4811;DHT22;2419;51.276;6.472;2023-02-28T06:30:11;-1.10;99.90
4811;DHT22;2419;51.276;6.472;2023-02-28T06:32:39;-1.10;99.90
4811;DHT22;2419;51.276;6.472;2023-02-28T06:35:08;-1.10;99.90
4811;DHT22;2419;51.276;6.472;2023-02-28T06:37:36;-1.00;99.90
4811;DHT22;2419;51.276;6.472;2023-02-28T06:40:10;-1.10;99.90
4811;DHT22;2419;51.276;6.472;2023-02-28T06:42:39;-1.00;99.90
4811;DHT22;2419;51.276;6.472;2023-02-28T06:45:08;-0.70;99.90
4811;DHT22;2419;51.276;6.472;2023-02-28T06:47:38;0.60;99.90
4811;DHT22;2419;51.276;6.472;2023-02-28T06:50:07;1.40;99.90
4811;DHT22;2419;51.276;6.472;2023-02-28T06:52:36;2.20;99.90
4811;DHT22;2419;51.276;6.472;2023-02-28T06:55:06;2.90;99.90
4811;DHT22;2419;51.276;6.472;2023-02-28T06:57:36;3.40;99.30
4811;DHT22;2419;51.276;6.472;2023-02-28T07:00:06;3.70;98.90
4811;DHT22;2419;51.276;6.472;2023-02-28T07:02:35;2.00;99.90
4811;DHT22;2419;51.276;6.472;2023-02-28T07:05:04;1.40;99.90
4811;DHT22;2419;51.276;6.472;2023-02-28T07:07:32;1.10;99.90
4811;DHT22;2419;51.276;6.472;2023-02-28T07:10:03;0.80;99.90
4811;DHT22;2419;51.276;6.472;2023-02-28T07:12:31;0.70;99.90
4811;DHT22;2419;51.276;6.472;2023-02-28T07:15:01;0.80;99.90
4811;DHT22;2419;51.276;6.472;2023-02-28T07:17:30;2.50;99.90
4811;DHT22;2419;51.276;6.472;2023-02-28T07:19:58;4.00;99.10
4811;DHT22;2419;51.276;6.472;2023-02-28T07:22:26;4.70;96.70
4811;DHT22;2419;51.276;6.472;2023-02-28T07:24:55;4.90;94.90
4811;DHT22;2419;51.276;6.472;2023-02-28T07:27:23;4.40;95.40
4811;DHT22;2419;51.276;6.472;2023-02-28T07:29:52;4.20;95.70
4811;DHT22;2419;51.276;6.472;2023-02-28T07:32:23;5.30;94.70
4811;DHT22;2419;51.276;6.472;2023-02-28T07:34:51;6.20;92.90
4811;DHT22;2419;51.276;6.472;2023-02-28T07:37:20;6.20;92.60
4811;DHT22;2419;51.276;6.472;2023-02-28T07:39:48;6.70;91.00
4811;DHT22;2419;51.276;6.472;2023-02-28T07:42:16;6.40;90.90
4811;DHT22;2419;51.276;6.472;2023-02-28T07:44:44;6.90;89.50
4811;DHT22;2419;51.276;6.472;2023-02-28T07:47:12;7.70;85.40
4811;DHT22;2419;51.276;6.472;2023-02-28T07:49:41;7.90;82.20
4811;DHT22;2419;51.276;6.472;2023-02-28T07:52:09;8.60;79.00
4811;DHT22;2419;51.276;6.472;2023-02-28T07:54:38;9.20;76.20
4811;DHT22;2419;51.276;6.472;2023-02-28T07:57:06;9.10;72.60
4811;DHT22;2419;51.276;6.472;2023-02-28T07:59:34;8.80;72.60
4811;DHT22;2419;51.276;6.472;2023-02-28T08:02:02;9.00;71.20
4811;DHT22;2419;51.276;6.472;2023-02-28T08:04:32;8.20;71.00
4811;DHT22;2419;51.276;6.472;2023-02-28T08:07:01;7.90;73.50
4811;DHT22;2419;51.276;6.472;2023-02-28T08:09:29;7.50;73.20
4811;DHT22;2419;51.276;6.472;2023-02-28T08:11:58;7.00;75.20
4811;DHT22;2419;51.276;6.472;2023-02-28T08:14:26;7.20;74.40
4811;DHT22;2419;51.276;6.472;2023-02-28T08:16:54;6.50;74.00
4811;DHT22;2419;51.276;6.472;2023-02-28T08:19:22;5.20;79.50
4811;DHT22;2419;51.276;6.472;2023-02-28T08:21:50;5.80;77.80
4811;DHT22;2419;51.276;6.472;2023-02-28T08:24:19;6.40;75.60
4811;DHT22;2419;51.276;6.472;2023-02-28T08:26:47;6.90;75.70
4811;DHT22;2419;51.276;6.472;2023-02-28T08:29:16;7.00;74.50
4811;DHT22;2419;51.276;6.472;2023-02-28T08:31:44;6.80;74.30
4811;DHT22;2419;51.276;6.472;2023-02-28T08:34:14;6.20;75.70
4811;DHT22;2419;51.276;6.472;2023-02-28T08:36:43;5.30;76.90
4811;DHT22;2419;51.276;6.472;2023-02-28T08:39:12;6.30;77.40
4811;DHT22;2419;51.276;6.472;2023-02-28T08:41:42;7.20;74.90
4811;DHT22;2419;51.276;6.472;2023-02-28T08:44:10;7.70;72.40
4811;DHT22;2419;51.276;6.472;2023-02-28T08:46:38;8.40;70.10
4811;DHT22;2419;51.276;6.472;2023-02-28T08:49:06;8.60;69.00
4811;DHT22;2419;51.276;6.472;2023-02-28T08:51:36;8.90;67.40
4811;DHT22;2419;51.276;6.472;2023-02-28T08:54:04;9.20;65.60
4811;DHT22;2419;51.276;6.472;2023-02-28T08:56:32;9.10;65.00
4811;DHT22;2419;51.276;6.472;2023-02-28T08:59:01;8.00;65.20
4811;DHT22;2419;51.276;6.472;2023-02-28T09:01:30;7.50;66.60
4811;DHT22;2419;51.276;6.472;2023-02-28T09:03:59;7.60;69.00
4811;DHT22;2419;51.276;6.472;2023-02-28T09:06:28;7.80;68.30
4811;DHT22;2419;51.276;6.472;2023-02-28T09:08:57;7.80;66.00
4811;DHT22;2419;51.276;6.472;2023-02-28T09:11:28;6.40;68.00
4811;DHT22;2419;51.276;6.472;2023-02-28T09:13:57;7.90;66.60
4811;DHT22;2419;51.276;6.472;2023-02-28T09:16:27;6.90;67.20
4811;DHT22;2419;51.276;6.472;2023-02-28T09:18:55;7.50;68.20
4811;DHT22;2419;51.276;6.472;2023-02-28T09:21:23;7.10;67.90
4811;DHT22;2419;51.276;6.472;2023-02-28T09:23:51;6.00;66.50
4811;DHT22;2419;51.276;6.472;2023-02-28T09:26:21;6.10;69.90
4811;DHT22;2419;51.276;6.472;2023-02-28T09:28:50;7.80;66.80
4811;DHT22;2419;51.276;6.472;2023-02-28T09:31:21;7.80;64.30
4811;DHT22;2419;51.276;6.472;2023-02-28T09:33:53;6.50;66.20
4811;DHT22;2419;51.276;6.472;2023-02-28T09:36:22;6.50;68.20
4811;DHT22;2419;51.276;6.472;2023-02-28T09:39:00;6.90;68.70
4811;DHT22;2419;51.276;6.472;2023-02-28T09:41:32;7.00;68.60
4811;DHT22;2419;51.276;6.472;2023-02-28T09:44:10;7.40;67.70
4811;DHT22;2419;51.276;6.472;2023-02-28T09:46:42;7.30;65.60
4811;DHT22;2419;51.276;6.472;2023-02-28T09:49:15;7.30;64.30
4811;DHT22;2419;51.276;6.472;2023-02-28T09:51:50;8.30;65.90
4811;DHT22;2419;51.276;6.472;2023-02-28T09:54:21;8.40;62.90
4811;DHT22;2419;51.276;6.472;2023-02-28T09:56:51;7.80;63.30
4811;DHT22;2419;51.276;6.472;2023-02-28T09:59:31;7.10;64.80
4811;DHT22;2419;51.276;6.472;2023-02-28T10:02:12;6.90;63.30
4811;DHT22;2419;51.276;6.472;2023-02-28T10:04:47;7.50;65.80
4811;DHT22;2419;51.276;6.472;2023-02-28T10:07:41;7.90;63.40
4811;DHT22;2419;51.276;6.472;2023-02-28T10:10:19;7.90;63.70
4811;DHT22;2419;51.276;6.472;2023-02-28T10:12:53;8.40;63.60
4811;DHT22;2419;51.276;6.472;2023-02-28T10:15:24;8.80;62.30
4811;DHT22;2419;51.276;6.472;2023-02-28T10:17:56;9.70;60.00
4811;DHT22;2419;51.276;6.472;2023-02-28T10:20:38;10.50;59.80
4811;DHT22;2419;51.276;6.472;2023-02-28T10:23:13;9.80;57.90
4811;DHT22;2419;51.276;6.472;2023-02-28T10:25:47;10.30;57.50
4811;DHT22;2419;51.276;6.472;2023-02-28T10:28:17;9.90;58.30
4811;DHT22;2419;51.276;6.472;2023-02-28T10:30:47;10.90;58.90
4811;DHT22;2419;51.276;6.472;2023-02-28T10:33:22;11.00;56.60
4811;DHT22;2419;51.276;6.472;2023-02-28T10:35:52;8.40;59.00
4811;DHT22;2419;51.276;6.472;2023-02-28T10:38:22;7.00;62.50
4811;DHT22;2419;51.276;6.472;2023-02-28T10:40:51;7.60;61.90
4811;DHT22;2419;51.276;6.472;2023-02-28T10:43:21;6.60;61.80
4811;DHT22;2419;51.276;6.472;2023-02-28T10:46:01;6.70;63.80
4811;DHT22;2419;51.276;6.472;2023-02-28T10:48:33;8.00;61.40
4811;DHT22;2419;51.276;6.472;2023-02-28T10:51:04;9.10;60.40
4811;DHT22;2419;51.276;6.472;2023-02-28T10:53:37;8.50;60.10
4811;DHT22;2419;51.276;6.472;2023-02-28T10:56:25;7.00;60.90
4811;DHT22;2419;51.276;6.472;2023-02-28T10:58:56;6.00;63.60
4811;DHT22;2419;51.276;6.472;2023-02-28T11:01:35;6.10;62.50
4811;DHT22;2419;51.276;6.472;2023-02-28T11:04:17;5.60;63.20
4811;DHT22;2419;51.276;6.472;2023-02-28T11:06:48;5.90;63.00
4811;DHT22;2419;51.276;6.472;2023-02-28T11:09:27;5.30;64.20
4811;DHT22;2419;51.276;6.472;2023-02-28T11:11:57;5.20;63.80
4811;DHT22;2419;51.276;6.472;2023-02-28T11:14:27;5.40;64.50
4811;DHT22;2419;51.276;6.472;2023-02-28T11:17:00;6.10;63.70
4811;DHT22;2419;51.276;6.472;2023-02-28T11:19:34;7.00;62.60
4811;DHT22;2419;51.276;6.472;2023-02-28T11:22:08;8.10;60.30
4811;DHT22;2419;51.276;6.472;2023-02-28T11:24:42;8.70;59.30
4811;DHT22;2419;51.276;6.472;2023-02-28T11:27:25;8.70;58.00
4811;DHT22;2419;51.276;6.472;2023-02-28T11:29:53;9.10;57.90
4811;DHT22;2419;51.276;6.472;2023-02-28T11:32:22;9.50;57.40
4811;DHT22;2419;51.276;6.472;2023-02-28T11:35:00;9.50;57.00
4811;DHT22;2419;51.276;6.472;2023-02-28T11:37:32;9.80;55.70
4811;DHT22;2419;51.276;6.472;2023-02-28T11:40:00;9.50;56.80
4811;DHT22;2419;51.276;6.472;2023-02-28T11:42:43;8.70;56.30
4811;DHT22;2419;51.276;6.472;2023-02-28T11:45:26;8.40;56.70
4811;DHT22;2419;51.276;6.472;2023-02-28T11:48:01;8.50;58.00
4811;DHT22;2419;51.276;6.472;2023-02-28T11:50:49;8.60;55.60
4811;DHT22;2419;51.276;6.472;2023-02-28T11:53:27;9.40;55.80
4811;DHT22;2419;51.276;6.472;2023-02-28T11:56:05;9.40;55.40
4811;DHT22;2419;51.276;6.472;2023-02-28T11:58:45;8.70;55.80
4811;DHT22;2419;51.276;6.472;2023-02-28T12:01:30;8.50;57.20
4811;DHT22;2419;51.276;6.472;2023-02-28T12:04:12;9.20;58.40
4811;DHT22;2419;51.276;6.472;2023-02-28T12:06:47;9.00;57.30
4811;DHT22;2419;51.276;6.472;2023-02-28T12:09:37;9.60;55.70
4811;DHT22;2419;51.276;6.472;2023-02-28T12:12:15;10.20;53.90
4811;DHT22;2419;51.276;6.472;2023-02-28T12:15:01;10.10;54.10
4811;DHT22;2419;51.276;6.472;2023-02-28T12:17:43;10.00;55.40
4811;DHT22;2419;51.276;6.472;2023-02-28T12:20:21;9.70;53.90
4811;DHT22;2419;51.276;6.472;2023-02-28T12:23:00;9.50;56.00
4811;DHT22;2419;51.276;6.472;2023-02-28T12:25:46;9.60;56.00
4811;DHT22;2419;51.276;6.472;2023-02-28T12:28:20;9.40;56.30
4811;DHT22;2419;51.276;6.472;2023-02-28T12:30:53;9.40;57.30
4811;DHT22;2419;51.276;6.472;2023-02-28T12:33:27;9.00;55.50
4811;DHT22;2419;51.276;6.472;2023-02-28T12:35:59;9.40;56.60
4811;DHT22;2419;51.276;6.472;2023-02-28T12:38:35;9.20;56.50
4811;DHT22;2419;51.276;6.472;2023-02-28T12:41:10;9.50;55.60
4811;DHT22;2419;51.276;6.472;2023-02-28T12:43:43;9.90;53.50
4811;DHT22;2419;51.276;6.472;2023-02-28T12:46:16;9.40;54.40
4811;DHT22;2419;51.276;6.472;2023-02-28T12:48:47;9.30;55.10
4811;DHT22;2419;51.276;6.472;2023-02-28T12:51:16;9.00;57.00
4811;DHT22;2419;51.276;6.472;2023-02-28T12:53:56;9.50;56.60
4811;DHT22;2419;51.276;6.472;2023-02-28T12:56:38;10.10;55.70
4811;DHT22;2419;51.276;6.472;2023-02-28T12:59:15;9.80;55.30
4811;DHT22;2419;51.276;6.472;2023-02-28T13:02:32;9.20;55.50
4811;DHT22;2419;51.276;6.472;2023-02-28T13:05:12;9.00;55.30
4811;DHT22;2419;51.276;6.472;2023-02-28T13:10:54;9.60;56.00
4811;DHT22;2419;51.276;6.472;2023-02-28T13:13:25;8.80;55.40
4811;DHT22;2419;51.276;6.472;2023-02-28T13:16:02;8.40;55.80
4811;DHT22;2419;51.276;6.472;2023-02-28T13:18:33;8.60;57.50
4811;DHT22;2419;51.276;6.472;2023-02-28T13:21:04;8.50;57.00
4811;DHT22;2419;51.276;6.472;2023-02-28T13:23:56;8.20;56.70
4811;DHT22;2419;51.276;6.472;2023-02-28T13:29:34;9.20;57.90
4811;DHT22;2419;51.276;6.472;2023-02-28T13:32:27;9.20;56.60
4811;DHT22;2419;51.276;6.472;2023-02-28T13:35:18;9.20;56.90
4811;DHT22;2419;51.276;6.472;2023-02-28T13:38:33;8.90;55.00
4811;DHT22;2419;51.276;6.472;2023-02-28T13:44:20;8.90;56.50
4811;DHT22;2419;51.276;6.472;2023-02-28T13:47:23;8.70;56.80
4811;DHT22;2419;51.276;6.472;2023-02-28T13:49:52;9.20;57.10
4811;DHT22;2419;51.276;6.472;2023-02-28T13:52:23;8.60;58.50
4811;DHT22;2419;51.276;6.472;2023-02-28T13:55:17;8.30;58.00
4811;DHT22;2419;51.276;6.472;2023-02-28T14:01:11;7.60;58.40
4811;DHT22;2419;51.276;6.472;2023-02-28T14:06:37;7.80;61.90
4811;DHT22;2419;51.276;6.472;2023-02-28T14:09:18;7.40;59.00
4811;DHT22;2419;51.276;6.472;2023-02-28T14:11:50;7.20;60.60
4811;DHT22;2419;51.276;6.472;2023-02-28T14:14:55;6.90;60.60
4811;DHT22;2419;51.276;6.472;2023-02-28T14:17:24;6.80;60.10
4811;DHT22;2419;51.276;6.472;2023-02-28T14:19:55;6.80;62.00
4811;DHT22;2419;51.276;6.472;2023-02-28T14:22:43;6.60;61.20
4811;DHT22;2419;51.276;6.472;2023-02-28T14:25:20;6.80;62.00
4811;DHT22;2419;51.276;6.472;2023-02-28T14:27:58;6.60;62.80
4811;DHT22;2419;51.276;6.472;2023-02-28T14:30:43;6.80;62.30
4811;DHT22;2419;51.276;6.472;2023-02-28T14:33:27;6.70;61.00
4811;DHT22;2419;51.276;6.472;2023-02-28T14:36:21;6.70;61.70
4811;DHT22;2419;51.276;6.472;2023-02-28T14:38:52;6.50;61.90
4811;DHT22;2419;51.276;6.472;2023-02-28T14:41:23;6.60;63.60
4811;DHT22;2419;51.276;6.472;2023-02-28T14:43:54;6.50;63.50
4811;DHT22;2419;51.276;6.472;2023-02-28T14:46:25;6.40;63.60
4811;DHT22;2419;51.276;6.472;2023-02-28T14:48:55;6.30;63.00
4811;DHT22;2419;51.276;6.472;2023-02-28T14:51:25;6.30;63.20
4811;DHT22;2419;51.276;6.472;2023-02-28T14:53:58;6.20;63.30
4811;DHT22;2419;51.276;6.472;2023-02-28T14:56:29;6.20;62.90
4811;DHT22;2419;51.276;6.472;2023-02-28T14:58:58;6.20;63.50
4811;DHT22;2419;51.276;6.472;2023-02-28T15:01:26;6.30;63.30
4811;DHT22;2419;51.276;6.472;2023-02-28T15:04:00;6.20;62.70
4811;DHT22;2419;51.276;6.472;2023-02-28T15:06:32;6.20;64.40
4811;DHT22;2419;51.276;6.472;2023-02-28T15:09:08;6.30;64.90
4811;DHT22;2419;51.276;6.472;2023-02-28T15:11:38;6.30;65.40
4811;DHT22;2419;51.276;6.472;2023-02-28T15:14:06;6.30;64.50
4811;DHT22;2419;51.276;6.472;2023-02-28T15:16:37;6.30;65.40
4811;DHT22;2419;51.276;6.472;2023-02-28T15:19:11;6.30;66.10
4811;DHT22;2419;51.276;6.472;2023-02-28T15:21:46;6.10;65.20
4811;DHT22;2419;51.276;6.472;2023-02-28T15:24:18;6.00;65.60
4811;DHT22;2419;51.276;6.472;2023-02-28T15:26:53;5.90;64.30
4811;DHT22;2419;51.276;6.472;2023-02-28T15:29:24;6.00;65.10
4811;DHT22;2419;51.276;6.472;2023-02-28T15:31:56;6.00;67.00
4811;DHT22;2419;51.276;6.472;2023-02-28T15:34:29;5.90;66.10
4811;DHT22;2419;51.276;6.472;2023-02-28T15:37:38;5.80;66.40
4811;DHT22;2419;51.276;6.472;2023-02-28T15:40:13;5.80;66.20
4811;DHT22;2419;51.276;6.472;2023-02-28T15:42:42;5.70;65.60
4811;DHT22;2419;51.276;6.472;2023-02-28T15:45:28;5.70;68.00
4811;DHT22;2419;51.276;6.472;2023-02-28T15:47:57;5.70;68.40
4811;DHT22;2419;51.276;6.472;2023-02-28T15:50:39;5.80;68.80
4811;DHT22;2419;51.276;6.472;2023-02-28T15:53:14;5.80;69.10
4811;DHT22;2419;51.276;6.472;2023-02-28T15:55:43;5.80;70.50
4811;DHT22;2419;51.276;6.472;2023-02-28T15:58:21;5.60;69.70
4811;DHT22;2419;51.276;6.472;2023-02-28T16:01:15;5.60;71.70
4811;DHT22;2419;51.276;6.472;2023-02-28T16:03:46;5.50;69.80
4811;DHT22;2419;51.276;6.472;2023-02-28T16:06:36;5.60;72.20
4811;DHT22;2419;51.276;6.472;2023-02-28T16:09:08;5.50;71.70
4811;DHT22;2419;51.276;6.472;2023-02-28T16:11:39;5.40;72.10
4811;DHT22;2419;51.276;6.472;2023-02-28T16:14:13;5.40;70.90
4811;DHT22;2419;51.276;6.472;2023-02-28T16:16:43;5.30;71.50
4811;DHT22;2419;51.276;6.472;2023-02-28T16:19:12;5.20;72.10
4811;DHT22;2419;51.276;6.472;2023-02-28T16:21:40;5.20;72.90
4811;DHT22;2419;51.276;6.472;2023-02-28T16:24:10;5.20;71.30
4811;DHT22;2419;51.276;6.472;2023-02-28T16:26:40;5.10;73.20
4811;DHT22;2419;51.276;6.472;2023-02-28T16:29:10;5.10;74.00
4811;DHT22;2419;51.276;6.472;2023-02-28T16:31:41;5.10;72.70
4811;DHT22;2419;51.276;6.472;2023-02-28T16:34:09;5.00;73.70
4811;DHT22;2419;51.276;6.472;2023-02-28T16:36:38;5.00;74.40
4811;DHT22;2419;51.276;6.472;2023-02-28T16:39:06;4.90;75.00
4811;DHT22;2419;51.276;6.472;2023-02-28T16:41:36;4.90;77.00
4811;DHT22;2419;51.276;6.472;2023-02-28T16:44:09;4.70;77.40
4811;DHT22;2419;51.276;6.472;2023-02-28T16:46:38;4.70;77.90
4811;DHT22;2419;51.276;6.472;2023-02-28T16:49:10;4.60;78.40
4811;DHT22;2419;51.276;6.472;2023-02-28T16:51:39;4.50;78.90
4811;DHT22;2419;51.276;6.472;2023-02-28T16:54:08;4.40;79.20
4811;DHT22;2419;51.276;6.472;2023-02-28T16:56:37;4.30;83.80
4811;DHT22;2419;51.276;6.472;2023-02-28T16:59:08;4.30;80.30
4811;DHT22;2419;51.276;6.472;2023-02-28T17:01:36;4.30;80.30
4811;DHT22;2419;51.276;6.472;2023-02-28T17:04:09;4.40;79.70
4811;DHT22;2419;51.276;6.472;2023-02-28T17:06:37;4.30;82.00
4811;DHT22;2419;51.276;6.472;2023-02-28T17:09:09;4.20;81.50